Terminal Aerodrome Forecast
Issued by NWS Rapid City, SD

Home | Current Version | Previous Version | Graphics & Text | Print | Product List | Glossary On
Versions: 1 2 3 4 5 6 7 8 9 10 11 12 13 14 15
000
FTUS43 KUNR 251634 AAA
TAFRAP
TAF AMD
KRAP 251634Z 2517/2612 03012G22KT P6SM BKN120
     FM252200 01013KT P6SM TSRA BKN080CB OVC100
     FM260400 34006KT P6SM VCTS SCT080CB OVC100
     FM260700 32005KT P6SM BKN100=

USA.gov is the U.S. government's official web portal to all federal, state and local government web resources and services.